createdAt,value
2019-01-04T00:01:48.085Z,22.57
2019-01-04T00:04:27.089Z,24.60
2019-01-04T00:06:58.551Z,21.67
2019-01-04T00:09:30.132Z,19.57
2019-01-04T00:12:01.606Z,25.93
2019-01-04T00:14:34.475Z,26.57
2019-01-04T00:17:05.981Z,21.60
2019-01-04T00:19:37.429Z,22.33
2019-01-04T00:22:08.936Z,23.87
2019-01-04T00:24:41.305Z,23.80
2019-01-04T00:27:12.791Z,24.03
2019-01-04T00:29:44.251Z,22.83
2019-01-04T00:32:15.725Z,22.90
2019-01-04T00:34:47.483Z,25.63
2019-01-04T00:37:18.982Z,20.90
2019-01-04T00:39:50.425Z,24.40
2019-01-04T00:42:21.977Z,26.10
2019-01-04T00:44:53.458Z,25.90
2019-01-04T00:47:24.933Z,23.57
2019-01-04T00:49:56.377Z,26.67
2019-01-04T00:52:27.831Z,20.03
2019-01-04T00:55:11.242Z,23.70
2019-01-04T00:58:33.513Z,23.87
2019-01-04T01:02:15.771Z,30.23
2019-01-04T01:05:41.414Z,25.87
2019-01-04T01:09:01.735Z,27.53
2019-01-04T01:12:39.805Z,25.47
2019-01-04T01:16:02.172Z,29.50
2019-01-04T01:19:41.735Z,25.87
2019-01-04T01:23:15.020Z,25.60
2019-01-04T01:26:39.661Z,32.47
2019-01-04T01:29:51.229Z,31.83
2019-01-04T01:33:27.453Z,28.10
2019-01-04T01:36:47.364Z,28.70
2019-01-04T01:40:15.000Z,28.73
2019-01-04T01:43:54.479Z,28.57
2019-01-04T01:46:56.649Z,27.47
2019-01-04T01:50:45.161Z,28.07
2019-01-04T01:53:16.583Z,29.13
2019-01-04T01:55:48.039Z,31.83
2019-01-04T01:58:19.608Z,32.43
2019-01-04T02:00:51.103Z,29.57
2019-01-04T02:03:22.587Z,31.30
2019-01-04T02:05:54.100Z,30.13
2019-01-04T02:08:25.661Z,25.57
2019-01-04T02:10:57.177Z,31.40
2019-01-04T02:13:28.708Z,30.13
2019-01-04T02:16:00.187Z,33.33
2019-01-04T02:18:31.646Z,32.60
2019-01-04T02:21:03.110Z,34.97
2019-01-04T02:23:34.587Z,33.77
2019-01-04T02:26:06.114Z,33.67
2019-01-04T02:28:37.626Z,42.10
2019-01-04T02:31:09.168Z,34.17
2019-01-04T02:33:40.603Z,30.43
2019-01-04T02:36:12.050Z,35.30
2019-01-04T02:38:43.518Z,34.50
2019-01-04T02:41:14.991Z,33.20
2019-01-04T02:43:46.441Z,37.40
2019-01-04T02:46:17.975Z,38.73
2019-01-04T02:48:49.425Z,37.73
2019-01-04T02:51:20.894Z,35.33
2019-01-04T02:53:52.458Z,31.30
2019-01-04T02:56:23.962Z,32.33
2019-01-04T02:58:55.431Z,33.27
2019-01-04T03:01:26.942Z,36.33
2019-01-04T03:03:58.444Z,31.97
2019-01-04T03:06:29.876Z,29.20
2019-01-04T03:09:01.475Z,34.30
2019-01-04T03:11:34.040Z,26.87
2019-01-04T03:14:05.500Z,28.60
2019-01-04T03:16:36.983Z,27.03
2019-01-04T03:19:08.437Z,25.57
2019-01-04T03:21:39.909Z,26.87
2019-01-04T03:24:11.357Z,30.03
2019-01-04T03:26:42.807Z,32.17
2019-01-04T03:29:14.253Z,27.57
2019-01-04T03:31:45.745Z,26.27
2019-01-04T03:34:17.195Z,27.37
2019-01-04T03:36:48.674Z,28.53
2019-01-04T03:39:20.139Z,30.53
2019-01-04T03:41:51.598Z,26.43
2019-01-04T03:44:23.049Z,28.27
2019-01-04T03:46:54.497Z,26.60
2019-01-04T03:49:25.975Z,25.13
2019-01-04T03:51:57.383Z,31.03
2019-01-04T03:54:28.850Z,28.07
2019-01-04T03:57:00.366Z,27.77
2019-01-04T03:59:31.835Z,28.57
2019-01-04T04:02:03.310Z,30.17
2019-01-04T04:04:34.750Z,32.23
2019-01-04T04:07:06.200Z,25.60
2019-01-04T04:09:37.665Z,23.67
2019-01-04T04:12:09.108Z,25.40
2019-01-04T04:14:40.588Z,28.10
2019-01-04T04:17:12.089Z,27.20
2019-01-04T04:19:43.562Z,25.37
2019-01-04T04:22:15.079Z,28.03
2019-01-04T04:24:46.529Z,26.70
2019-01-04T04:27:18.030Z,26.00
2019-01-04T04:29:49.535Z,22.77
2019-01-04T04:32:20.965Z,24.67
2019-01-04T04:34:52.398Z,26.60
2019-01-04T04:37:23.858Z,27.30
2019-01-04T04:39:55.307Z,24.90
2019-01-04T04:42:26.813Z,23.73
2019-01-04T04:44:58.283Z,22.63
2019-01-04T04:47:29.778Z,23.97
2019-01-04T04:50:01.586Z,28.43
2019-01-04T04:52:33.047Z,25.87
2019-01-04T04:55:04.643Z,24.13
2019-01-04T04:57:36.117Z,25.53
2019-01-04T05:00:08.379Z,31.77
2019-01-04T05:02:39.919Z,28.50
2019-01-04T05:05:11.397Z,24.07
2019-01-04T05:07:42.902Z,24.47
2019-01-04T05:10:14.353Z,23.23
2019-01-04T05:12:45.823Z,25.23
2019-01-04T05:15:17.306Z,28.07
2019-01-04T05:17:48.772Z,26.80
2019-01-04T05:20:20.267Z,26.97
2019-01-04T05:22:51.767Z,30.37
2019-01-04T05:25:23.248Z,27.10
2019-01-04T05:27:54.736Z,26.57
2019-01-04T05:30:26.243Z,23.40
2019-01-04T05:32:57.715Z,26.87
2019-01-04T05:35:29.171Z,27.17
2019-01-04T05:38:00.656Z,26.27
2019-01-04T05:40:32.139Z,31.23
2019-01-04T05:43:03.658Z,26.70
2019-01-04T05:45:35.157Z,33.67
2019-01-04T05:48:10.335Z,30.77
2019-01-04T05:50:43.956Z,28.30
2019-01-04T05:53:15.860Z,26.17
2019-01-04T05:55:47.320Z,25.77
2019-01-04T05:58:18.857Z,29.60
2019-01-04T06:00:50.316Z,30.33
2019-01-04T06:03:21.910Z,23.33
2019-01-04T06:05:53.343Z,26.97
2019-01-04T06:08:24.845Z,26.00
2019-01-04T06:10:56.346Z,29.57
2019-01-04T06:13:27.829Z,25.03
2019-01-04T06:15:59.266Z,30.50
2019-01-04T06:18:30.815Z,22.70
2019-01-04T06:21:02.272Z,24.33
2019-01-04T06:23:33.768Z,25.47
2019-01-04T06:26:06.162Z,25.33
2019-01-04T06:28:37.666Z,27.70
2019-01-04T06:31:09.176Z,23.43
2019-01-04T06:33:41.023Z,28.43
2019-01-04T06:36:12.516Z,26.67
2019-01-04T06:38:43.990Z,24.17
2019-01-04T06:41:15.477Z,25.03
2019-01-04T06:43:47.002Z,28.40
2019-01-04T06:46:18.512Z,27.07
2019-01-04T06:48:49.962Z,27.10
2019-01-04T06:51:21.410Z,26.47
2019-01-04T06:53:52.950Z,23.07
2019-01-04T06:56:24.422Z,25.10
2019-01-04T06:58:55.915Z,28.17
2019-01-04T07:01:27.406Z,29.90
2019-01-04T07:03:58.889Z,24.63
2019-01-04T07:06:30.348Z,23.40
2019-01-04T07:09:01.774Z,28.17
2019-01-04T07:11:34.544Z,25.17
2019-01-04T07:14:05.972Z,29.43
2019-01-04T07:16:37.478Z,26.33
2019-01-04T07:19:08.978Z,31.90
2019-01-04T07:21:40.445Z,26.77
2019-01-04T07:24:11.909Z,32.00
2019-01-04T07:26:43.358Z,28.70
2019-01-04T07:29:15.384Z,23.80
2019-01-04T07:31:46.872Z,26.73
2019-01-04T07:34:18.322Z,31.30
2019-01-04T07:36:49.827Z,24.43
2019-01-04T07:39:21.284Z,28.90
2019-01-04T07:41:52.777Z,27.20
2019-01-04T07:44:24.254Z,22.10
2019-01-04T07:46:55.735Z,23.93
2019-01-04T07:49:27.187Z,25.43
2019-01-04T07:51:58.618Z,26.23
2019-01-04T07:54:30.076Z,22.43
2019-01-04T07:57:01.507Z,25.70
2019-01-04T07:59:32.960Z,21.03
2019-01-04T08:02:52.526Z,24.37
2019-01-04T08:05:30.721Z,23.83
2019-01-04T08:08:02.173Z,23.40
2019-01-04T08:10:33.622Z,22.27
2019-01-04T08:13:05.063Z,21.33
2019-01-04T08:15:36.559Z,49.87
2019-01-04T08:18:08.035Z,80.50
2019-01-04T08:20:39.527Z,44.80
2019-01-04T08:23:10.959Z,24.87
2019-01-04T08:25:42.455Z,31.63
2019-01-04T08:28:13.942Z,29.97
2019-01-04T08:30:45.375Z,20.90
2019-01-04T08:33:16.837Z,21.47
2019-01-04T08:35:48.324Z,17.83
2019-01-04T08:38:19.828Z,18.20
2019-01-04T08:40:51.277Z,18.13
2019-01-04T08:43:22.691Z,21.43
2019-01-04T08:45:54.171Z,20.07
2019-01-04T08:48:25.615Z,18.90
2019-01-04T08:50:57.053Z,18.27
2019-01-04T08:54:01.577Z,20.63
2019-01-04T08:56:36.569Z,18.30
2019-01-04T08:59:07.991Z,21.03
2019-01-04T09:01:39.458Z,22.17
2019-01-04T09:04:10.868Z,50.73
2019-01-04T09:06:42.353Z,43.00
2019-01-04T09:09:14.086Z,60.17
2019-01-04T09:11:45.619Z,26.83
2019-01-04T09:14:17.097Z,42.87
2019-01-04T09:16:48.602Z,53.97
2019-01-04T09:19:20.074Z,26.60
2019-01-04T09:21:51.581Z,41.90
2019-01-04T09:24:23.054Z,23.47
2019-01-04T09:26:54.607Z,22.43
2019-01-04T09:29:26.065Z,43.37
2019-01-04T09:31:57.583Z,35.27
2019-01-04T09:34:29.012Z,27.77
2019-01-04T09:37:00.506Z,31.13
2019-01-04T09:39:32.050Z,22.07
2019-01-04T09:42:13.625Z,27.93
2019-01-04T09:44:46.471Z,25.90
2019-01-04T09:47:18.928Z,45.83
2019-01-04T09:49:50.368Z,41.90
2019-01-04T09:52:21.861Z,23.67
2019-01-04T09:54:53.326Z,26.77
2019-01-04T09:57:24.835Z,46.23
2019-01-04T09:59:57.146Z,26.63
2019-01-04T10:02:28.656Z,21.40
2019-01-04T10:05:00.133Z,19.77
2019-01-04T10:07:31.700Z,76.90
2019-01-04T10:10:03.138Z,43.10
2019-01-04T10:12:35.686Z,22.80
2019-01-04T10:15:09.280Z,22.47
2019-01-04T10:17:41.859Z,19.47
2019-01-04T10:20:13.504Z,14.93
2019-01-04T10:22:46.069Z,17.77
2019-01-04T10:25:17.545Z,15.73
2019-01-04T10:27:49.002Z,15.20
2019-01-04T10:30:27.697Z,16.80
2019-01-04T10:32:59.140Z,15.90
2019-01-04T10:35:30.727Z,16.33
2019-01-04T10:38:02.378Z,15.87
2019-01-04T10:40:33.876Z,14.97
2019-01-04T10:43:08.704Z,15.17
2019-01-04T10:45:40.175Z,15.53
2019-01-04T10:48:11.633Z,13.27
2019-01-04T10:50:43.096Z,18.53
2019-01-04T10:53:14.561Z,13.30
2019-01-04T10:55:46.003Z,15.80
2019-01-04T10:58:17.450Z,16.20
2019-01-04T11:00:48.917Z,15.40
2019-01-04T11:03:20.374Z,15.00
2019-01-04T11:05:51.828Z,14.40
2019-01-04T11:08:23.253Z,14.53
2019-01-04T11:10:54.649Z,16.83
2019-01-04T11:13:26.153Z,14.30
2019-01-04T11:15:57.724Z,12.57
2019-01-04T11:18:29.207Z,12.93
2019-01-04T11:21:04.750Z,14.10
2019-01-04T11:24:51.394Z,13.23
2019-01-04T11:28:04.403Z,15.67
2019-01-04T11:31:05.565Z,14.50
2019-01-04T11:34:20.484Z,15.23
2019-01-04T11:37:50.079Z,14.73
2019-01-04T11:41:09.280Z,14.50
2019-01-04T11:44:45.382Z,14.27
2019-01-04T11:47:51.552Z,15.50
2019-01-04T11:51:19.769Z,16.43
2019-01-04T11:53:51.279Z,14.30
2019-01-04T11:56:22.768Z,16.83
2019-01-04T11:58:54.176Z,17.37
2019-01-04T12:01:25.665Z,15.13
2019-01-04T12:04:02.166Z,15.13
2019-01-04T12:06:33.639Z,14.10
2019-01-04T12:09:07.661Z,15.30
2019-01-04T12:11:39.120Z,16.87
2019-01-04T12:14:10.572Z,13.37
2019-01-04T12:16:42.052Z,14.80
2019-01-04T12:19:13.558Z,16.33
2019-01-04T12:21:45.047Z,15.40
2019-01-04T12:24:16.500Z,17.47
2019-01-04T12:26:47.908Z,17.10
2019-01-04T12:29:19.389Z,15.30
2019-01-04T12:31:50.843Z,15.60
2019-01-04T12:34:22.305Z,13.90
2019-01-04T12:36:53.765Z,13.57
2019-01-04T12:39:25.234Z,14.13
2019-01-04T12:41:56.718Z,15.97
2019-01-04T12:44:28.149Z,15.00
2019-01-04T12:46:59.617Z,13.47
2019-01-04T12:49:31.103Z,16.33
2019-01-04T12:52:02.573Z,15.30
2019-01-04T12:54:34.014Z,13.63
2019-01-04T12:57:05.477Z,16.90
2019-01-04T12:59:36.917Z,18.73
2019-01-04T13:02:08.395Z,14.20
2019-01-04T13:04:39.972Z,15.60
2019-01-04T13:07:11.439Z,16.43
2019-01-04T13:09:42.839Z,16.17
2019-01-04T13:12:14.345Z,11.60
2019-01-04T13:14:45.795Z,15.07
2019-01-04T13:17:17.355Z,15.10
2019-01-04T13:19:48.830Z,14.00
2019-01-04T13:22:20.317Z,14.20
2019-01-04T13:24:51.772Z,16.00
2019-01-04T13:27:23.251Z,14.27
2019-01-04T13:29:54.743Z,12.70
2019-01-04T13:32:26.255Z,13.60
2019-01-04T13:34:57.852Z,13.70
2019-01-04T13:37:29.365Z,12.87
2019-01-04T13:40:00.836Z,20.50
2019-01-04T13:42:32.334Z,16.77
2019-01-04T13:45:03.907Z,14.67
2019-01-04T13:47:35.396Z,12.73
2019-01-04T13:50:07.456Z,13.47
2019-01-04T13:52:38.929Z,18.37
2019-01-04T13:55:10.431Z,14.13
2019-01-04T13:57:41.899Z,16.27
2019-01-04T14:00:13.368Z,14.83
2019-01-04T14:02:44.834Z,17.60
2019-01-04T14:05:16.286Z,17.83
2019-01-04T14:07:47.792Z,16.17
2019-01-04T14:10:19.350Z,15.43
2019-01-04T14:12:50.788Z,15.77
2019-01-04T14:15:22.241Z,17.63
2019-01-04T14:17:53.787Z,12.83
2019-01-04T14:20:25.274Z,16.87
2019-01-04T14:22:57.514Z,14.80
2019-01-04T14:25:28.943Z,19.10
2019-01-04T14:28:00.476Z,17.40
2019-01-04T14:30:32.223Z,17.80
2019-01-04T14:33:03.759Z,18.57
2019-01-04T14:35:36.832Z,16.00
2019-01-04T14:38:08.552Z,17.63
2019-01-04T14:40:40.055Z,19.87
2019-01-04T14:43:11.574Z,13.20
2019-01-04T14:45:43.081Z,13.77
2019-01-04T14:48:14.552Z,15.03
2019-01-04T14:50:45.986Z,16.27
2019-01-04T14:53:17.586Z,24.57
2019-01-04T14:55:49.030Z,18.07
2019-01-04T14:58:20.555Z,20.30
2019-01-04T15:00:52.075Z,17.47
2019-01-04T15:03:23.618Z,20.17
2019-01-04T15:05:55.182Z,16.50
2019-01-04T15:08:26.709Z,19.17
2019-01-04T15:10:58.261Z,16.53
2019-01-04T15:13:29.824Z,17.63
2019-01-04T15:16:01.304Z,17.43
2019-01-04T15:18:32.730Z,18.73
2019-01-04T15:21:04.209Z,16.67
2019-01-04T15:23:35.758Z,15.30
2019-01-04T15:26:07.319Z,18.50
2019-01-04T15:28:38.869Z,16.20
2019-01-04T15:31:10.523Z,17.53
2019-01-04T15:33:42.076Z,17.77
2019-01-04T15:36:13.657Z,17.43
2019-01-04T15:38:46.177Z,15.87
2019-01-04T15:41:17.677Z,21.40
2019-01-04T15:43:49.129Z,19.87
2019-01-04T15:46:20.632Z,18.80
2019-01-04T15:48:52.091Z,20.77
2019-01-04T15:51:23.578Z,21.57
2019-01-04T15:53:55.195Z,19.50
2019-01-04T15:56:26.752Z,19.30
2019-01-04T15:58:58.334Z,18.70
2019-01-04T16:01:29.825Z,26.07
2019-01-04T16:04:01.729Z,20.73
2019-01-04T16:06:33.170Z,19.70
2019-01-04T16:09:06.254Z,18.10
2019-01-04T16:11:37.832Z,18.97
2019-01-04T16:14:09.335Z,17.67
2019-01-04T16:16:40.963Z,23.20
2019-01-04T16:19:12.502Z,22.20
2019-01-04T16:21:43.994Z,20.03
2019-01-04T16:24:15.526Z,22.93
2019-01-04T16:26:46.999Z,20.93
2019-01-04T16:29:18.500Z,19.17
2019-01-04T16:31:50.049Z,16.77
2019-01-04T16:34:21.688Z,23.83
2019-01-04T16:36:53.167Z,25.90
2019-01-04T16:39:24.738Z,19.83
2019-01-04T16:41:56.219Z,20.33
2019-01-04T16:44:27.776Z,20.80
2019-01-04T16:46:59.329Z,22.10
2019-01-04T16:49:37.023Z,24.33
2019-01-04T16:52:08.530Z,20.50
2019-01-04T16:54:40.089Z,20.70
2019-01-04T16:57:11.606Z,24.93
2019-01-04T16:59:43.138Z,25.97
2019-01-04T17:02:14.701Z,24.57
2019-01-04T17:04:46.195Z,21.57
2019-01-04T17:07:17.666Z,23.13
2019-01-04T17:09:50.315Z,20.80
2019-01-04T17:12:21.778Z,25.27
2019-01-04T17:14:53.273Z,21.73
2019-01-04T17:17:24.797Z,24.53
2019-01-04T17:19:56.271Z,23.80
2019-01-04T17:22:27.785Z,24.50
2019-01-04T17:24:59.265Z,21.57
2019-01-04T17:27:30.758Z,22.53
2019-01-04T17:30:02.235Z,24.50
2019-01-04T17:32:33.685Z,23.37
2019-01-04T17:35:05.373Z,23.87
2019-01-04T17:37:36.825Z,25.50
2019-01-04T17:40:10.138Z,28.57
2019-01-04T17:42:41.621Z,25.27
2019-01-04T17:45:13.083Z,22.97
2019-01-04T17:47:44.599Z,30.73
2019-01-04T17:50:16.210Z,26.43
2019-01-04T17:52:47.659Z,27.23
2019-01-04T17:55:19.127Z,21.73
2019-01-04T17:57:50.574Z,23.30
2019-01-04T18:00:22.005Z,25.00
2019-01-04T18:02:53.460Z,23.73
2019-01-04T18:05:24.888Z,25.50
2019-01-04T18:07:56.355Z,27.07
2019-01-04T18:10:27.863Z,26.00
2019-01-04T18:12:59.305Z,26.03
2019-01-04T18:15:30.834Z,27.10
2019-01-04T18:18:02.270Z,26.43
2019-01-04T18:20:33.899Z,28.77
2019-01-04T18:23:05.394Z,27.33
2019-01-04T18:25:36.951Z,28.30
2019-01-04T18:28:08.433Z,26.80
2019-01-04T18:30:39.901Z,30.50
2019-01-04T18:33:11.360Z,27.33
2019-01-04T18:35:42.844Z,32.07
2019-01-04T18:38:14.247Z,28.93
2019-01-04T18:40:45.693Z,27.93
2019-01-04T18:43:17.212Z,27.80
2019-01-04T18:45:48.786Z,27.17
2019-01-04T18:48:20.234Z,26.07
2019-01-04T18:50:53.773Z,23.37
2019-01-04T18:53:25.417Z,28.13
2019-01-04T18:55:56.904Z,25.23
2019-01-04T18:58:30.223Z,26.07
2019-01-04T19:01:01.688Z,26.03
2019-01-04T19:03:33.256Z,27.33
2019-01-04T19:06:04.846Z,23.63
2019-01-04T19:08:36.399Z,23.10
2019-01-04T19:11:07.850Z,25.63
2019-01-04T19:13:39.233Z,23.30
2019-01-04T19:16:10.726Z,24.23
2019-01-04T19:18:44.075Z,23.83
2019-01-04T19:21:15.555Z,25.70
2019-01-04T19:23:47.126Z,24.80
2019-01-04T19:26:18.598Z,27.00
2019-01-04T19:28:50.067Z,25.00
2019-01-04T19:31:21.593Z,23.87
2019-01-04T19:33:53.041Z,27.60
2019-01-04T19:36:24.533Z,25.77
2019-01-04T19:38:56.085Z,23.93
2019-01-04T19:41:27.622Z,26.17
2019-01-04T19:43:59.302Z,24.30
2019-01-04T19:46:30.806Z,26.97
2019-01-04T19:49:02.330Z,26.10
2019-01-04T19:51:33.992Z,19.40
2019-01-04T19:54:05.492Z,25.00
2019-01-04T19:56:38.902Z,26.97
2019-01-04T19:59:10.394Z,22.90
2019-01-04T20:01:41.890Z,24.83
2019-01-04T20:04:13.342Z,25.43
2019-01-04T20:07:57.166Z,20.80
2019-01-04T20:12:09.082Z,25.50
2019-01-04T20:15:55.195Z,23.67
2019-01-04T20:18:48.332Z,22.70
2019-01-04T20:21:37.581Z,24.03
2019-01-04T20:24:28.027Z,28.03
2019-01-04T20:27:17.338Z,33.03
2019-01-04T20:30:13.587Z,22.07
2019-01-04T20:33:05.093Z,19.77
2019-01-04T20:36:08.706Z,20.97
2019-01-04T20:39:05.598Z,23.87
2019-01-04T20:41:59.428Z,20.30
2019-01-04T20:44:55.876Z,21.63
2019-01-04T20:47:52.346Z,22.67
2019-01-04T20:50:54.893Z,22.00
2019-01-04T20:53:48.777Z,22.03
2019-01-04T20:56:48.253Z,20.13
2019-01-04T20:59:38.659Z,21.73
2019-01-04T21:02:40.677Z,19.47
2019-01-04T21:05:29.847Z,20.23
2019-01-04T21:08:21.759Z,17.90
2019-01-04T21:11:14.911Z,19.03
2019-01-04T21:14:11.546Z,17.00
2019-01-04T21:17:00.615Z,15.37
2019-01-04T21:20:03.078Z,18.57
2019-01-04T21:22:53.513Z,15.47
2019-01-04T21:25:36.802Z,15.47
2019-01-04T21:28:30.053Z,18.30
2019-01-04T21:31:20.371Z,20.07
2019-01-04T21:34:17.012Z,18.20
2019-01-04T21:37:05.931Z,22.23
2019-01-04T21:40:02.460Z,18.80
2019-01-04T21:43:04.481Z,21.23
2019-01-04T21:45:57.899Z,20.67
2019-01-04T21:49:00.325Z,20.80
2019-01-04T21:52:06.093Z,18.13
2019-01-04T21:54:59.494Z,17.87
2019-01-04T21:57:48.857Z,16.43
2019-01-04T22:00:38.167Z,16.43
2019-01-04T22:03:23.560Z,18.23
2019-01-04T22:06:18.653Z,17.23
2019-01-04T22:09:07.957Z,17.33
2019-01-04T22:11:57.089Z,23.90
2019-01-04T22:14:53.643Z,17.43
2019-01-04T22:17:47.033Z,19.97
2019-01-04T22:20:36.005Z,18.60
2019-01-04T22:23:24.990Z,18.50
2019-01-04T22:26:14.257Z,21.70
2019-01-04T22:29:16.995Z,17.87
2019-01-04T22:32:22.485Z,19.37
2019-01-04T22:35:19.373Z,20.33
2019-01-04T22:38:21.854Z,22.63
2019-01-04T22:41:12.239Z,20.93
2019-01-04T22:44:14.752Z,23.10
2019-01-04T22:46:56.584Z,20.47
2019-01-04T22:49:56.115Z,22.97
2019-01-04T22:52:45.173Z,23.83
2019-01-04T22:55:43.414Z,22.30
2019-01-04T22:58:37.598Z,19.10
2019-01-04T23:01:31.015Z,25.60
2019-01-04T23:04:21.388Z,21.97
2019-01-04T23:07:10.454Z,22.53
2019-01-04T23:10:00.921Z,24.40
2019-01-04T23:12:52.107Z,23.57
2019-01-04T23:15:41.587Z,23.30
2019-01-04T23:18:45.214Z,20.47
2019-01-04T23:22:12.894Z,20.43
2019-01-04T23:25:03.084Z,22.33
2019-01-04T23:27:50.888Z,20.37
2019-01-04T23:30:40.226Z,20.70
2019-01-04T23:33:33.332Z,21.40
2019-01-04T23:36:22.678Z,19.67
2019-01-04T23:39:16.240Z,20.43
2019-01-04T23:42:09.636Z,20.23
2019-01-04T23:45:00.158Z,20.23
2019-01-04T23:47:45.364Z,20.63
2019-01-04T23:50:34.618Z,20.30
2019-01-04T23:53:30.924Z,18.20
2019-01-04T23:56:34.976Z,17.93
2019-01-04T23:59:24.309Z,16.73
